createdAt,value
2022-09-20T00:02:08.447Z,17.40
2022-09-20T00:04:38.283Z,17.50
2022-09-20T00:07:08.096Z,17.20
2022-09-20T00:09:38.086Z,17.40
2022-09-20T00:12:08.714Z,17.40
2022-09-20T00:14:38.527Z,17.40
2022-09-20T00:17:09.879Z,17.30
2022-09-20T00:19:40.099Z,17.30
2022-09-20T00:22:09.906Z,17.30
2022-09-20T00:24:39.641Z,17.10
2022-09-20T00:27:09.531Z,17.10
2022-09-20T00:29:39.649Z,17.20
2022-09-20T00:32:11.164Z,17.20
2022-09-20T00:34:58.116Z,17.30
2022-09-20T00:37:29.251Z,17.20
2022-09-20T00:39:59.436Z,17.20
2022-09-20T00:42:30.630Z,17.20
2022-09-20T00:45:01.774Z,17.10
2022-09-20T00:47:46.427Z,17.10
2022-09-20T00:50:33.859Z,17.10
2022-09-20T00:53:09.404Z,17.00
2022-09-20T00:55:45.995Z,17.00
2022-09-20T00:58:17.421Z,16.90
2022-09-20T01:00:48.913Z,16.90
2022-09-20T01:03:23.498Z,16.90
2022-09-20T01:05:54.738Z,16.90
2022-09-20T01:08:26.087Z,16.80
2022-09-20T01:10:56.517Z,16.80
2022-09-20T01:13:27.350Z,16.80
2022-09-20T01:16:00.950Z,16.70
2022-09-20T01:18:34.244Z,16.40
2022-09-20T01:21:05.391Z,16.00
2022-09-20T01:23:46.770Z,16.10
2022-09-20T01:26:53.450Z,16.40
2022-09-20T01:29:46.213Z,16.80
2022-09-20T01:32:21.546Z,16.80
2022-09-20T01:34:55.960Z,16.80
2022-09-20T01:37:28.945Z,16.80
2022-09-20T01:40:06.598Z,16.80
2022-09-20T01:42:40.240Z,16.80
2022-09-20T01:45:20.600Z,16.80
2022-09-20T01:48:01.276Z,16.80
2022-09-20T01:50:39.782Z,16.60
2022-09-20T01:53:41.129Z,16.50
2022-09-20T01:56:56.210Z,16.50
2022-09-20T02:00:13.020Z,16.60
2022-09-20T02:03:14.262Z,16.50
2022-09-20T02:06:06.303Z,16.50
2022-09-20T02:09:07.547Z,16.40
2022-09-20T02:11:51.383Z,16.30
2022-09-20T02:14:42.405Z,16.20
2022-09-20T02:17:19.289Z,16.60
2022-09-20T02:20:03.021Z,16.70
2022-09-20T02:22:50.975Z,16.50
2022-09-20T02:25:45.545Z,16.20
2022-09-20T02:28:28.981Z,16.30
2022-09-20T02:31:09.693Z,16.20
2022-09-20T02:34:05.769Z,16.50
2022-09-20T02:36:47.361Z,16.20
2022-09-20T02:39:23.417Z,16.20
2022-09-20T02:42:05.304Z,16.40
2022-09-20T02:44:58.052Z,16.50
2022-09-20T02:47:35.863Z,16.50
2022-09-20T02:50:20.419Z,16.50
2022-09-20T02:53:07.731Z,16.60
2022-09-20T02:55:44.407Z,16.60
2022-09-20T02:58:34.199Z,16.60
2022-09-20T03:01:11.780Z,16.60
2022-09-20T03:03:53.150Z,16.50
2022-09-20T03:06:32.304Z,16.40
2022-09-20T03:09:11.533Z,16.50
2022-09-20T03:11:50.053Z,16.50
2022-09-20T03:14:24.572Z,16.60
2022-09-20T03:17:06.205Z,16.60
2022-09-20T03:19:51.842Z,16.60
2022-09-20T03:22:32.924Z,16.60
2022-09-20T03:25:22.904Z,16.60
2022-09-20T03:28:03.988Z,16.60
2022-09-20T03:30:47.515Z,16.60
2022-09-20T03:33:28.726Z,16.60
2022-09-20T03:36:10.485Z,16.60
2022-09-20T03:39:04.155Z,16.60
2022-09-20T03:41:49.334Z,16.50
2022-09-20T03:44:52.313Z,16.50
2022-09-20T03:47:37.496Z,16.60
2022-09-20T03:50:40.896Z,16.60
2022-09-20T03:53:55.677Z,16.60
2022-09-20T03:56:56.185Z,16.50
2022-09-20T03:59:57.434Z,16.50
2022-09-20T04:02:50.395Z,16.60
2022-09-20T04:05:27.686Z,16.50
2022-09-20T04:08:09.066Z,16.60
2022-09-20T04:10:48.594Z,16.60
2022-09-20T04:13:34.086Z,16.60
2022-09-20T04:16:17.779Z,16.50
2022-09-20T04:18:54.086Z,16.30
2022-09-20T04:21:30.860Z,16.30
2022-09-20T04:24:07.125Z,16.20
2022-09-20T04:26:42.878Z,16.20
2022-09-20T04:29:35.509Z,16.20
2022-09-20T04:32:15.621Z,16.20
2022-09-20T04:35:05.970Z,16.20
2022-09-20T04:37:40.076Z,16.30
2022-09-20T04:40:25.606Z,16.20
2022-09-20T04:43:33.383Z,16.10
2022-09-20T04:46:31.124Z,16.00
2022-09-20T04:49:27.255Z,16.00
2022-09-20T04:52:17.444Z,16.10
2022-09-20T04:55:23.609Z,16.10
2022-09-20T04:58:14.313Z,16.20
2022-09-20T05:01:04.041Z,16.20
2022-09-20T05:04:06.363Z,16.30
2022-09-20T05:06:59.423Z,16.20
2022-09-20T05:10:01.292Z,16.30
2022-09-20T05:12:56.857Z,16.10
2022-09-20T05:15:41.774Z,16.20
2022-09-20T05:18:42.093Z,15.90
2022-09-20T05:21:29.096Z,15.90
2022-09-20T05:24:12.685Z,15.80
2022-09-20T05:26:58.180Z,15.70
2022-09-20T05:29:33.560Z,15.60
2022-09-20T05:32:11.096Z,15.40
2022-09-20T05:34:49.270Z,15.10
2022-09-20T05:37:35.671Z,15.00
2022-09-20T05:40:17.780Z,14.80
2022-09-20T05:42:56.976Z,15.00
2022-09-20T05:45:49.378Z,15.40
2022-09-20T05:48:26.308Z,15.20
2022-09-20T05:51:03.859Z,15.10
2022-09-20T05:54:02.709Z,15.00
2022-09-20T05:56:47.776Z,14.90
2022-09-20T05:59:32.537Z,15.20
2022-09-20T06:02:21.044Z,15.60
2022-09-20T06:05:01.954Z,15.70
2022-09-20T06:07:46.416Z,15.80
2022-09-20T06:11:03.381Z,15.70
2022-09-20T06:13:51.775Z,16.00
2022-09-20T06:16:33.409Z,16.20
2022-09-20T06:19:13.829Z,16.30
2022-09-20T06:21:52.137Z,16.20
2022-09-20T06:24:37.718Z,16.30
2022-09-20T06:27:13.166Z,16.50
2022-09-20T06:29:49.324Z,16.60
2022-09-20T06:32:19.751Z,16.20
2022-09-20T06:34:50.893Z,16.30
2022-09-20T06:37:56.035Z,16.60
2022-09-20T06:40:52.478Z,16.90
2022-09-20T06:43:22.288Z,17.10
2022-09-20T06:45:53.880Z,17.40
2022-09-20T06:48:25.491Z,17.50
2022-09-20T06:50:55.401Z,17.70
2022-09-20T06:53:31.365Z,17.70
2022-09-20T06:56:02.822Z,17.70
2022-09-20T06:58:32.930Z,17.80
2022-09-20T07:01:04.316Z,18.00
2022-09-20T07:03:34.194Z,18.10
2022-09-20T07:06:04.836Z,18.20
2022-09-20T07:08:34.564Z,18.30
2022-09-20T07:11:09.470Z,18.40
2022-09-20T07:13:39.582Z,18.30
2022-09-20T07:16:14.033Z,18.40
2022-09-20T07:18:44.543Z,18.40
2022-09-20T07:21:15.683Z,18.50
2022-09-20T07:23:46.302Z,18.50
2022-09-20T07:26:20.623Z,18.60
2022-09-20T07:28:51.163Z,18.60
2022-09-20T07:31:23.766Z,18.70
2022-09-20T07:33:53.434Z,18.60
2022-09-20T07:36:23.246Z,18.50
2022-09-20T07:38:53.980Z,18.50
2022-09-20T07:41:24.517Z,18.70
2022-09-20T07:43:54.428Z,18.70
2022-09-20T07:46:25.688Z,18.80
2022-09-20T07:48:55.486Z,18.80
2022-09-20T07:51:25.396Z,18.80
2022-09-20T07:53:57.058Z,18.90
2022-09-20T07:56:26.964Z,18.90
2022-09-20T07:58:56.885Z,19.00
2022-09-20T08:01:28.450Z,19.10
2022-09-20T08:03:58.656Z,19.20
2022-09-20T08:06:28.477Z,19.30
2022-09-20T08:08:58.386Z,19.40
2022-09-20T08:11:30.138Z,19.30
2022-09-20T08:14:06.155Z,19.50
2022-09-20T08:16:44.060Z,19.40
2022-09-20T08:19:18.320Z,19.70
2022-09-20T08:21:48.748Z,19.70
2022-09-20T08:24:19.384Z,19.70
2022-09-20T08:26:50.206Z,19.90
2022-09-20T08:29:20.036Z,20.00
2022-09-20T08:31:53.062Z,20.00
2022-09-20T08:34:22.708Z,20.10
2022-09-20T08:36:56.929Z,20.10
2022-09-20T08:42:36.703Z,20.20
2022-09-20T08:45:22.340Z,20.20
2022-09-20T08:47:58.819Z,20.40
2022-09-20T08:50:29.701Z,20.60
2022-09-20T08:53:05.542Z,20.40
2022-09-20T08:55:40.045Z,20.40
2022-09-20T08:58:14.071Z,20.50
2022-09-20T09:00:47.806Z,20.50
2022-09-20T09:03:20.556Z,20.80
2022-09-20T09:05:52.274Z,20.80
2022-09-20T09:08:26.220Z,20.70
2022-09-20T09:10:58.399Z,20.90
2022-09-20T09:13:34.139Z,21.00
2022-09-20T09:16:10.468Z,21.10
2022-09-20T09:18:43.699Z,21.10
2022-09-20T09:21:22.010Z,21.20
2022-09-20T09:24:01.749Z,21.20
2022-09-20T09:26:38.528Z,21.30
2022-09-20T09:29:18.200Z,21.40
2022-09-20T09:31:49.995Z,21.50
2022-09-20T09:34:30.080Z,21.30
2022-09-20T09:37:01.431Z,21.30
2022-09-20T09:39:32.775Z,21.60
2022-09-20T09:42:21.520Z,21.80
2022-09-20T09:44:51.342Z,22.00
2022-09-20T09:47:29.143Z,22.20
2022-09-20T09:50:05.040Z,21.80
2022-09-20T09:52:38.905Z,21.70
2022-09-20T09:55:14.634Z,22.00
2022-09-20T09:57:55.632Z,22.30
2022-09-20T10:00:27.703Z,22.40
2022-09-20T10:03:24.433Z,22.40
2022-09-20T10:06:06.744Z,22.50
2022-09-20T10:08:44.135Z,22.50
2022-09-20T10:11:31.248Z,22.40
2022-09-20T10:14:14.069Z,22.40
2022-09-20T10:16:57.575Z,21.80
2022-09-20T10:19:47.380Z,22.00
2022-09-20T10:22:29.680Z,22.00
2022-09-20T10:25:12.197Z,22.10
2022-09-20T10:28:00.855Z,22.10
2022-09-20T10:30:42.467Z,21.80
2022-09-20T10:33:25.448Z,21.70
2022-09-20T10:36:07.757Z,22.10
2022-09-20T10:38:46.687Z,22.00
2022-09-20T10:41:45.891Z,22.40
2022-09-20T10:44:33.823Z,23.00
2022-09-20T10:47:09.230Z,23.40
2022-09-20T10:49:48.467Z,23.50
2022-09-20T10:52:59.944Z,23.60
2022-09-20T10:55:45.779Z,23.70
2022-09-20T10:58:48.395Z,23.80
2022-09-20T11:01:23.968Z,23.60
2022-09-20T11:04:09.798Z,23.90
2022-09-20T11:06:51.377Z,23.70
2022-09-20T11:09:24.708Z,24.00
2022-09-20T11:12:06.784Z,23.90
2022-09-20T11:14:44.578Z,23.50
2022-09-20T11:17:22.686Z,24.20
2022-09-20T11:20:06.268Z,23.40
2022-09-20T11:22:43.093Z,23.60
2022-09-20T11:25:21.543Z,23.30
2022-09-20T11:27:59.740Z,23.40
2022-09-20T11:30:31.058Z,24.30
2022-09-20T11:33:07.938Z,24.60
2022-09-20T11:35:41.423Z,25.20
2022-09-20T11:38:16.995Z,25.00
2022-09-20T11:40:52.393Z,24.40
2022-09-20T11:43:31.663Z,24.60
2022-09-20T11:46:05.719Z,23.20
2022-09-20T11:48:41.722Z,23.70
2022-09-20T11:51:31.908Z,24.00
2022-09-20T11:54:21.586Z,24.20
2022-09-20T11:56:56.934Z,24.10
2022-09-20T11:59:35.861Z,25.10
2022-09-20T12:02:15.806Z,24.80
2022-09-20T12:04:50.125Z,24.60
2022-09-20T12:07:22.705Z,22.80
2022-09-20T12:09:57.436Z,22.80
2022-09-20T12:12:42.094Z,23.80
2022-09-20T12:15:27.686Z,24.40
2022-09-20T12:18:29.545Z,25.40
2022-09-20T12:21:06.312Z,24.90
2022-09-20T12:24:09.913Z,25.00
2022-09-20T12:26:51.191Z,25.00
2022-09-20T12:30:16.202Z,25.10
2022-09-20T12:32:54.511Z,25.60
2022-09-20T12:36:00.363Z,26.70
2022-09-20T12:38:57.319Z,26.60
2022-09-20T12:41:28.854Z,25.40
2022-09-20T12:44:09.122Z,26.70
2022-09-20T12:46:44.466Z,27.80
2022-09-20T12:49:45.312Z,27.50
2022-09-20T12:52:52.802Z,25.90
2022-09-20T12:55:47.705Z,26.30
2022-09-20T12:58:46.894Z,26.80
2022-09-20T13:01:36.069Z,26.40
2022-09-20T13:04:54.954Z,25.30
2022-09-20T13:07:49.939Z,24.90
2022-09-20T13:10:29.672Z,25.10
2022-09-20T13:13:13.716Z,25.60
2022-09-20T13:15:49.378Z,26.70
2022-09-20T13:18:21.540Z,26.50
2022-09-20T13:20:54.629Z,27.80
2022-09-20T13:23:29.548Z,28.50
2022-09-20T13:26:02.748Z,27.60
2022-09-20T13:28:36.865Z,26.50
2022-09-20T13:31:29.986Z,25.70
2022-09-20T13:34:15.300Z,25.40
2022-09-20T13:36:47.770Z,25.40
2022-09-20T13:39:29.056Z,26.30
2022-09-20T13:42:04.396Z,25.20
2022-09-20T13:44:35.335Z,26.30
2022-09-20T13:47:24.395Z,26.80
2022-09-20T13:49:54.208Z,26.90
2022-09-20T13:52:31.795Z,27.60
2022-09-20T13:55:01.715Z,27.70
2022-09-20T13:57:32.637Z,28.20
2022-09-20T14:00:05.323Z,28.90
2022-09-20T14:02:43.436Z,24.30
2022-09-20T14:05:20.000Z,23.40
2022-09-20T14:07:51.566Z,23.10
2022-09-20T14:10:38.287Z,22.70
2022-09-20T14:13:10.444Z,22.70
2022-09-20T14:15:43.940Z,23.00
2022-09-20T14:18:17.737Z,23.20
2022-09-20T14:20:49.396Z,23.30
2022-09-20T14:23:26.184Z,25.90
2022-09-20T14:26:10.836Z,27.40
2022-09-20T14:28:40.535Z,27.00
2022-09-20T14:31:15.516Z,27.40
2022-09-20T14:33:51.776Z,28.80
2022-09-20T14:36:27.074Z,29.40
2022-09-20T14:39:03.753Z,28.70
2022-09-20T14:41:39.190Z,27.80
2022-09-20T14:44:25.283Z,28.30
2022-09-20T14:46:56.124Z,28.90
2022-09-20T14:49:34.943Z,29.10
2022-09-20T14:52:34.053Z,29.10
2022-09-20T14:55:18.399Z,27.90
2022-09-20T14:57:50.969Z,28.80
2022-09-20T15:00:21.597Z,27.60
2022-09-20T15:02:52.493Z,25.80
2022-09-20T15:05:26.355Z,25.20
2022-09-20T15:07:57.803Z,25.30
2022-09-20T15:10:30.165Z,25.30
2022-09-20T15:13:01.938Z,26.70
2022-09-20T15:15:32.146Z,28.10
2022-09-20T15:18:02.459Z,28.70
2022-09-20T15:20:32.389Z,28.90
2022-09-20T15:23:03.120Z,29.50
2022-09-20T15:25:35.081Z,29.30
2022-09-20T15:28:05.437Z,28.40
2022-09-20T15:30:35.835Z,27.70
2022-09-20T15:33:05.534Z,27.30
2022-09-20T15:35:35.461Z,28.00
2022-09-20T15:38:05.275Z,28.20
2022-09-20T15:40:36.855Z,27.20
2022-09-20T15:43:09.091Z,26.30
2022-09-20T15:45:49.905Z,26.00
2022-09-20T15:48:21.336Z,25.80
2022-09-20T15:51:12.941Z,26.10
2022-09-20T15:53:45.201Z,25.60
2022-09-20T15:56:22.241Z,24.20
2022-09-20T15:58:59.475Z,25.40
2022-09-20T16:01:30.614Z,26.20
2022-09-20T16:04:00.782Z,25.80
2022-09-20T16:06:31.054Z,24.90
2022-09-20T16:09:00.969Z,24.00
2022-09-20T16:11:32.644Z,23.40
2022-09-20T16:14:03.366Z,23.10
2022-09-20T16:16:39.621Z,22.90
2022-09-20T16:19:17.869Z,23.40
2022-09-20T16:21:55.145Z,24.40
2022-09-20T16:24:27.700Z,24.30
2022-09-20T16:27:01.395Z,24.70
2022-09-20T16:29:31.623Z,24.50
2022-09-20T16:32:02.352Z,23.70
2022-09-20T16:34:35.344Z,23.00
2022-09-20T16:37:08.947Z,22.70
2022-09-20T16:39:38.753Z,22.40
2022-09-20T16:42:12.874Z,22.20
2022-09-20T16:44:44.526Z,22.00
2022-09-20T16:47:19.533Z,22.10
2022-09-20T16:49:49.150Z,21.90
2022-09-20T16:52:19.681Z,21.90
2022-09-20T16:54:49.502Z,21.80
2022-09-20T16:57:22.903Z,21.80
2022-09-20T16:59:56.185Z,21.60
2022-09-20T17:02:26.006Z,21.60
2022-09-20T17:04:57.382Z,21.50
2022-09-20T17:07:27.491Z,21.40
2022-09-20T17:10:03.212Z,21.30
2022-09-20T17:12:35.071Z,21.30
2022-09-20T17:15:09.901Z,21.20
2022-09-20T17:17:39.724Z,21.10
2022-09-20T17:20:10.353Z,21.10
2022-09-20T17:22:40.163Z,21.00
2022-09-20T17:25:11.613Z,20.90
2022-09-20T17:27:42.963Z,20.90
2022-09-20T17:30:14.007Z,20.90
2022-09-20T17:32:46.994Z,20.90
2022-09-20T17:35:19.160Z,20.90
2022-09-20T17:37:49.540Z,20.90
2022-09-20T17:40:19.224Z,21.00
2022-09-20T17:42:50.645Z,21.00
2022-09-20T17:45:21.164Z,20.80
2022-09-20T17:47:50.987Z,20.90
2022-09-20T17:50:20.788Z,20.90
2022-09-20T17:52:52.652Z,20.90
2022-09-20T17:55:22.677Z,20.80
2022-09-20T17:57:58.003Z,20.90
2022-09-20T18:00:27.992Z,20.60
2022-09-20T18:03:01.502Z,20.70
2022-09-20T18:05:34.510Z,20.70
2022-09-20T18:08:05.148Z,20.50
2022-09-20T18:10:35.773Z,20.60
2022-09-20T18:13:08.146Z,20.60
2022-09-20T18:15:40.203Z,20.50
2022-09-20T18:18:09.920Z,20.70
2022-09-20T18:20:40.350Z,20.60
2022-09-20T18:23:12.403Z,20.60
2022-09-20T18:25:59.643Z,20.50
2022-09-20T18:28:31.799Z,20.50
2022-09-20T18:31:05.621Z,20.20
2022-09-20T18:33:36.351Z,20.00
2022-09-20T18:36:08.399Z,20.00
2022-09-20T18:38:39.640Z,20.10
2022-09-20T18:41:09.669Z,20.20
2022-09-20T18:43:43.358Z,20.10
2022-09-20T18:46:14.677Z,20.20
2022-09-20T18:48:45.643Z,20.20
2022-09-20T18:51:16.703Z,20.10
2022-09-20T18:53:46.814Z,20.20
2022-09-20T18:56:25.230Z,20.20
2022-09-20T18:58:58.521Z,20.10
2022-09-20T19:02:09.806Z,19.90
2022-09-20T19:05:04.710Z,19.90
2022-09-20T19:07:43.973Z,19.70
2022-09-20T19:10:21.334Z,19.90
2022-09-20T19:12:57.494Z,19.90
2022-09-20T19:15:49.391Z,20.10
2022-09-20T19:18:36.156Z,20.10
2022-09-20T19:21:23.086Z,20.10
2022-09-20T19:24:08.616Z,20.10
2022-09-20T19:26:40.674Z,19.90
2022-09-20T19:29:19.917Z,19.90
2022-09-20T19:31:54.450Z,19.90
2022-09-20T19:34:26.850Z,19.80
2022-09-20T19:37:09.428Z,19.80
2022-09-20T19:39:58.201Z,19.70
2022-09-20T19:42:42.936Z,19.70
2022-09-20T19:45:22.479Z,19.60
2022-09-20T19:48:02.736Z,19.60
2022-09-20T19:50:37.270Z,19.50
2022-09-20T19:53:07.681Z,19.50
2022-09-20T19:55:38.427Z,19.30
2022-09-20T19:58:09.468Z,19.40
2022-09-20T20:00:40.437Z,19.40
2022-09-20T20:03:13.872Z,19.30
2022-09-20T20:05:49.139Z,19.30
2022-09-20T20:08:25.928Z,19.30
2022-09-20T20:11:03.818Z,19.20
2022-09-20T20:13:59.338Z,19.10
2022-09-20T20:16:35.389Z,19.00
2022-09-20T20:19:25.267Z,19.10
2022-09-20T20:22:00.302Z,19.00
2022-09-20T20:24:37.389Z,19.10
2022-09-20T20:27:08.181Z,19.00
2022-09-20T20:29:38.046Z,19.00
2022-09-20T20:32:10.011Z,19.00
2022-09-20T20:34:41.658Z,19.00
2022-09-20T20:37:11.981Z,18.90
2022-09-20T20:39:42.113Z,19.00
2022-09-20T20:42:13.645Z,19.00
2022-09-20T20:44:43.349Z,19.00
2022-09-20T20:47:13.065Z,19.00
2022-09-20T20:49:44.414Z,19.00
2022-09-20T20:52:14.943Z,18.80
2022-09-20T20:54:44.755Z,18.70
2022-09-20T20:57:17.231Z,18.60
2022-09-20T20:59:47.347Z,18.50
2022-09-20T21:02:19.061Z,18.50
2022-09-20T21:04:50.769Z,18.50
2022-09-20T21:07:20.987Z,18.40
2022-09-20T21:09:50.680Z,18.30
2022-09-20T21:12:22.050Z,18.40
2022-09-20T21:14:51.651Z,18.40
2022-09-20T21:17:21.360Z,18.50
2022-09-20T21:19:52.708Z,18.40
2022-09-20T21:22:22.632Z,18.30
2022-09-20T21:24:53.663Z,18.20
2022-09-20T21:27:23.477Z,18.00
2022-09-20T21:29:53.280Z,18.00
2022-09-20T21:32:23.099Z,18.20
2022-09-20T21:34:55.059Z,18.30
2022-09-20T21:37:24.930Z,18.30
2022-09-20T21:39:55.421Z,18.40
2022-09-20T21:42:28.940Z,18.50
2022-09-20T21:44:58.912Z,18.40
2022-09-20T21:47:28.833Z,18.40
2022-09-20T21:50:00.282Z,18.40
2022-09-20T21:52:31.022Z,18.30
2022-09-20T21:55:00.828Z,17.90
2022-09-20T21:57:30.640Z,17.90
2022-09-20T22:00:00.146Z,18.10
2022-09-20T22:02:30.298Z,18.20
2022-09-20T22:05:01.913Z,18.30
2022-09-20T22:07:31.623Z,18.30
2022-09-20T22:10:01.320Z,18.30
2022-09-20T22:12:31.148Z,18.20
2022-09-20T22:15:00.962Z,18.20
2022-09-20T22:17:31.180Z,18.30
2022-09-20T22:20:03.244Z,18.20
2022-09-20T22:22:32.942Z,18.10
2022-09-20T22:25:02.651Z,18.10
2022-09-20T22:27:32.578Z,18.00
2022-09-20T22:30:04.966Z,18.10
2022-09-20T22:32:34.855Z,18.10
2022-09-20T22:35:06.928Z,18.10
2022-09-20T22:37:36.719Z,18.10
2022-09-20T22:40:07.401Z,18.10
2022-09-20T22:42:37.389Z,18.10
2022-09-20T22:45:08.175Z,17.90
2022-09-20T22:47:38.043Z,17.80
2022-09-20T22:50:10.510Z,17.40
2022-09-20T22:52:40.419Z,17.20
2022-09-20T22:55:11.056Z,17.40
2022-09-20T22:57:40.753Z,17.40
2022-09-20T23:00:12.319Z,17.30
2022-09-20T23:02:42.630Z,17.30
2022-09-20T23:05:18.497Z,17.20
2022-09-20T23:07:51.071Z,17.00
2022-09-20T23:10:20.988Z,17.00
2022-09-20T23:12:53.462Z,16.90
2022-09-20T23:15:23.065Z,16.90
2022-09-20T23:17:52.982Z,16.80
2022-09-20T23:20:24.534Z,16.60
2022-09-20T23:22:55.460Z,16.60
2022-09-20T23:25:25.271Z,16.60
2022-09-20T23:27:57.245Z,16.60
2022-09-20T23:30:27.133Z,16.60
2022-09-20T23:32:58.104Z,16.40
2022-09-20T23:35:29.753Z,16.30
2022-09-20T23:37:59.597Z,16.50
2022-09-20T23:40:30.234Z,16.40
2022-09-20T23:43:00.216Z,16.40
2022-09-20T23:45:30.247Z,16.30
2022-09-20T23:48:00.250Z,16.10
2022-09-20T23:50:31.691Z,16.30
2022-09-20T23:53:02.734Z,16.20
2022-09-20T23:55:32.742Z,16.10
2022-09-20T23:58:02.465Z,16.10
